Patuxent River Naval Air Station/Trapnell Field Aiport
KNHK : now visible

Airfield :











YOU CAN JOIN US ON...

 
LOGIN :

Register | Disclaimer

   EN    FR    IT 

 









Legend :    VFR   Marginal VFR   IFR   Intensive IFR   Very Intensive IFR
Visi :
Ceiling :
>= 8 km
>= 3000ft
5 to 8 km
1000 to 3000 ft
1500m to 5 km
500 to 1000 ft
800 to 1500m
200 to 500 ft
< 800m
< 200 ft
Symbols :   Thunderstorms  Fog  Heavy snow  Heavy precipitations  Wind > 20 kt






- Airport Elevation : 39 ft


KNHK - Patuxent River Naval Air Station/Trapnell Field Aiport

CURRENT METAR :
  • 241552Z COR 14010KT 10SM BKN220 12/01 A3011 RMK AO2 CIG 110 RY24 SLP195 T01170006

EXPIRED METARs :
  • 241452Z 14010KT 10SM BKN220 11/M01 A3012 RMK AO2 SLP198 T01061006 58005
  • 241352Z 15008KT 10SM FEW150 SCT250 10/M01 A3013 RMK AO2 SLP201 T01001011

TAF TAF KNHK
Valid from the 24 at 15:00 until the 25 at 15:00 UTC


2415/2515 16011KT 9999 BKN220 QNH2984INS
BECMG 2423/2501 20009KT 9999 SCT090 BKN150 WS020/23040KT QNH2983INS
BECMG 2506/2508 32011KT 9999 BKN080 BKN140 QNH2986INS T15/2420Z T05/2512Z FN20065
KZDC FIR / North America



MET'MAP, your aeronautical weather chart ! - Copyright ORBIFLY December 2007 - Disclaimer

ORBIFLY MET'MAP TEAM :

Programming & Development : Alexandra Zaïnal
Concept & original design : Baudouin d'Aumeries
Assistance for programming : Marc-Olivier Méhu
Technical & hardware support : Manuel Goepfert

Contact : metmap@orbifly.com




SOURCES & CREDITS :

   NOAA       Earth
Advisory